Time;durP1;ratioP1;P1;durP2;ratioP2;P2;SDS_P1;SDS_P2;PMS_P1;PMS_P2;Temp;Humidity;BMP_temperature;BMP_pressure;BME280_temperature;BME280_humidity;BME280_pressure;Samples;Min_cycle;Max_cycle;Signal;HPM_P1;HPM_P2
2022/07/01 00:01:24;;;;;;;5.18;0.77;;;;;;;;;;5027040;28;20048;-58
2022/07/01 00:03:50;;;;;;;3.97;0.60;;;;;;;;;;5045738;28;20041;-58
2022/07/01 00:06:18;;;;;;;2.10;0.55;;;;;;;;;;5027560;28;20272;-58
2022/07/01 00:08:45;;;;;;;3.13;0.73;;;;;;;;;;5044777;28;20045;-58
2022/07/01 00:11:11;;;;;;;3.47;0.50;;;;;;;;;;5045942;28;20116;-58
2022/07/01 00:13:37;;;;;;;2.78;0.60;;;;;;;;;;5044951;28;20053;-58
2022/07/01 00:16:04;;;;;;;4.10;0.70;;;;;;;;;;5045489;28;20045;-57
2022/07/01 00:18:30;;;;;;;2.58;0.63;;;;;;;;;;5027404;28;20053;-58
2022/07/01 00:20:56;;;;;;;3.08;0.57;;;;;;;;;;5045267;28;20041;-58
2022/07/01 00:23:23;;;;;;;3.03;0.50;;;;;;;;;;5044418;28;20048;-57
2022/07/01 00:25:49;;;;;;;2.92;0.52;;;;;;;;;;5045522;28;20247;-58
2022/07/01 00:28:15;;;;;;;1.73;0.50;;;;;;;;;;5044732;28;20072;-58
2022/07/01 00:30:41;;;;;;;1.88;0.43;;;;;;;;;;5044999;28;20048;-58
2022/07/01 00:33:07;;;;;;;2.38;0.50;;;;;;;;;;5045487;28;20048;-57
2022/07/01 00:35:34;;;;;;;4.60;0.95;;;;;;;;;;5047855;28;20045;-57
2022/07/01 00:38:00;;;;;;;2.40;0.50;;;;;;;;;;5048611;28;20182;-58
2022/07/01 00:40:26;;;;;;;2.58;0.43;;;;;;;;;;5048875;28;20033;-57
2022/07/01 00:42:52;;;;;;;4.32;0.40;;;;;;;;;;5048645;28;20447;-57
2022/07/01 00:45:18;;;;;;;3.38;0.60;;;;;;;;;;5048735;28;20060;-58
2022/07/01 00:47:45;;;;;;;2.58;0.77;;;;;;;;;;5049260;28;20117;-58
2022/07/01 00:50:13;;;;;;;3.40;0.40;;;;;;;;;;5040956;28;20052;-58
2022/07/01 00:52:40;;;;;;;0.57;0.25;;;;;;;;;;5048218;28;20510;-59
2022/07/01 00:55:07;;;;;;;3.63;0.50;;;;;;;;;;5048964;28;20040;-59
2022/07/01 00:57:34;;;;;;;3.10;0.40;;;;;;;;;;5048256;28;20041;-57
2022/07/01 01:00:04;;;;;;;0.97;0.40;;;;;;;;;;5030886;28;20057;-58
2022/07/01 01:02:30;;;;;;;3.58;0.40;;;;;;;;;;5048278;28;20075;-56
2022/07/01 01:04:57;;;;;;;1.85;0.30;;;;;;;;;;5048531;28;20462;-58
2022/07/01 01:07:23;;;;;;;1.33;0.50;;;;;;;;;;5047428;28;20041;-57
2022/07/01 01:09:49;;;;;;;1.50;0.30;;;;;;;;;;5048145;28;20128;-57
2022/07/01 01:12:15;;;;;;;1.15;0.38;;;;;;;;;;5047881;28;20495;-57
2022/07/01 01:14:45;;;;;;;1.27;0.38;;;;;;;;;;5067787;22;20057;-63
2022/07/01 01:17:12;;;;;;;1.70;0.40;;;;;;;;;;5054175;28;20375;-63
2022/07/01 01:19:38;;;;;;;2.03;0.30;;;;;;;;;;5060122;28;20186;-63
2022/07/01 01:22:05;;;;;;;2.38;0.50;;;;;;;;;;5067668;28;20093;-63
2022/07/01 01:24:31;;;;;;;0.65;0.20;;;;;;;;;;5058522;28;20450;-63
2022/07/01 01:26:57;;;;;;;1.13;0.30;;;;;;;;;;5068357;28;20558;-63
2022/07/01 01:29:23;;;;;;;0.80;0.40;;;;;;;;;;5068289;28;20477;-63
2022/07/01 01:31:49;;;;;;;4.00;0.98;;;;;;;;;;5067883;28;20048;-63
2022/07/01 01:34:15;;;;;;;1.38;0.55;;;;;;;;;;5068074;28;20072;-64
2022/07/01 01:36:43;;;;;;;0.68;0.30;;;;;;;;;;5067832;28;20048;-63
2022/07/01 01:41:35;;;;;;;2.03;0.30;;;;;;;;;;5067884;28;20059;-63
2022/07/01 01:44:01;;;;;;;1.20;0.30;;;;;;;;;;5068108;28;20041;-63
2022/07/01 01:46:29;;;;;;;1.25;0.40;;;;;;;;;;5066733;28;20044;-63
2022/07/01 01:48:55;;;;;;;1.23;0.40;;;;;;;;;;5067739;28;20060;-63
2022/07/01 01:51:21;;;;;;;1.35;0.40;;;;;;;;;;5066990;28;20299;-63
2022/07/01 01:53:47;;;;;;;3.65;0.40;;;;;;;;;;5067724;28;20041;-64
2022/07/01 01:56:14;;;;;;;2.13;0.50;;;;;;;;;;5067517;28;20077;-63
2022/07/01 01:58:42;;;;;;;3.80;0.50;;;;;;;;;;5068400;28;20123;-63
2022/07/01 02:01:10;;;;;;;0.95;0.40;;;;;;;;;;5068277;28;20101;-63
2022/07/01 02:03:37;;;;;;;2.45;0.45;;;;;;;;;;5067612;28;20105;-63
2022/07/01 02:06:03;;;;;;;2.58;0.50;;;;;;;;;;5067317;28;20210;-63
2022/07/01 02:08:30;;;;;;;2.13;0.80;;;;;;;;;;5066304;28;20114;-63
2022/07/01 02:10:56;;;;;;;3.65;0.60;;;;;;;;;;5067825;28;20040;-63
2022/07/01 02:13:22;;;;;;;1.30;0.65;;;;;;;;;;5067238;28;20043;-63
2022/07/01 02:15:49;;;;;;;2.60;0.77;;;;;;;;;;5067922;28;20048;-63
2022/07/01 02:18:15;;;;;;;2.35;0.60;;;;;;;;;;5067251;28;20560;-63
2022/07/01 02:20:42;;;;;;;1.23;0.63;;;;;;;;;;5067304;28;20041;-63
2022/07/01 02:23:09;;;;;;;1.48;0.68;;;;;;;;;;5066767;28;20076;-63
2022/07/01 02:25:36;;;;;;;1.27;0.88;;;;;;;;;;5066976;28;20040;-63
2022/07/01 02:28:03;;;;;;;2.45;0.70;;;;;;;;;;5067646;28;20048;-63
2022/07/01 02:30:30;;;;;;;1.80;0.80;;;;;;;;;;5066590;28;20070;-63
2022/07/01 02:32:57;;;;;;;2.40;0.90;;;;;;;;;;5067411;28;20071;-63
2022/07/01 02:35:23;;;;;;;0.98;0.70;;;;;;;;;;5066521;28;20078;-63
2022/07/01 02:37:49;;;;;;;1.70;0.95;;;;;;;;;;5066094;28;20043;-63
2022/07/01 02:40:15;;;;;;;2.55;1.10;;;;;;;;;;5065560;28;20128;-63
2022/07/01 02:42:42;;;;;;;3.75;1.05;;;;;;;;;;5067290;28;20120;-63
2022/07/01 02:45:08;;;;;;;2.92;1.30;;;;;;;;;;5067363;28;20115;-63
2022/07/01 02:47:35;;;;;;;4.95;1.40;;;;;;;;;;5065226;28;20043;-63
2022/07/01 02:50:03;;;;;;;2.53;1.48;;;;;;;;;;5066978;28;20045;-63
2022/07/01 02:52:29;;;;;;;10.48;2.45;;;;;;;;;;5065733;28;20091;-63
2022/07/01 02:54:55;;;;;;;1.50;1.30;;;;;;;;;;5065515;28;20049;-63
2022/07/01 02:57:22;;;;;;;4.45;1.60;;;;;;;;;;5066259;28;20478;-63
2022/07/01 02:59:48;;;;;;;4.43;1.80;;;;;;;;;;5066603;28;20535;-63
2022/07/01 03:02:14;;;;;;;5.80;1.90;;;;;;;;;;5064799;28;20053;-64
2022/07/01 03:04:40;;;;;;;4.03;2.15;;;;;;;;;;5066477;28;20098;-63
2022/07/01 03:07:07;;;;;;;5.03;2.60;;;;;;;;;;5065972;28;20037;-63
2022/07/01 03:09:34;;;;;;;3.90;2.22;;;;;;;;;;5066001;28;20052;-63
2022/07/01 03:12:24;;;;;;;4.25;2.58;;;;;;;;;;5066326;28;20512;-63
2022/07/01 03:14:46;;;;;;;4.18;2.70;;;;;;;;;;5065447;28;20049;-64
2022/07/01 03:17:12;;;;;;;3.60;2.42;;;;;;;;;;5066502;28;20102;-63
2022/07/01 03:19:38;;;;;;;5.90;2.63;;;;;;;;;;5066641;28;20055;-63
2022/07/01 03:22:05;;;;;;;4.47;2.95;;;;;;;;;;5065661;28;20040;-63
2022/07/01 03:24:32;;;;;;;5.20;3.03;;;;;;;;;;5066238;28;20098;-63
2022/07/01 03:26:59;;;;;;;4.05;3.00;;;;;;;;;;5064439;28;20056;-63
2022/07/01 03:29:25;;;;;;;6.90;3.47;;;;;;;;;;5065956;28;20033;-63
2022/07/01 03:31:51;;;;;;;6.55;4.07;;;;;;;;;;5065609;28;20131;-64
2022/07/01 03:34:17;;;;;;;7.00;4.32;;;;;;;;;;5066052;28;20123;-64
2022/07/01 03:36:43;;;;;;;9.38;4.70;;;;;;;;;;5065196;28;20460;-65
2022/07/01 03:39:09;;;;;;;9.70;4.60;;;;;;;;;;5065647;28;20040;-63
2022/07/01 03:41:36;;;;;;;9.15;4.78;;;;;;;;;;5065458;28;20110;-64
2022/07/01 03:44:02;;;;;;;9.77;5.65;;;;;;;;;;5065458;28;20524;-63
2022/07/01 03:46:31;;;;;;;9.45;5.25;;;;;;;;;;5066067;28;20044;-63
2022/07/01 03:48:57;;;;;;;17.50;5.30;;;;;;;;;;5063839;28;20062;-63
2022/07/01 03:51:23;;;;;;;9.82;5.25;;;;;;;;;;5064137;28;20049;-63
2022/07/01 03:56:35;;;;;;;12.50;6.93;;;;;;;;;;5053439;28;20048;-63
2022/07/01 03:59:01;;;;;;;16.25;7.55;;;;;;;;;;5065501;28;20052;-63
2022/07/01 04:01:27;;;;;;;12.27;7.30;;;;;;;;;;5065492;28;20382;-63
2022/07/01 04:03:53;;;;;;;13.18;7.45;;;;;;;;;;5065625;28;20040;-63
2022/07/01 04:06:20;;;;;;;15.85;7.63;;;;;;;;;;5064320;28;20122;-63
2022/07/01 04:08:47;;;;;;;17.02;9.18;;;;;;;;;;5063979;28;20068;-64
2022/07/01 04:11:13;;;;;;;16.08;9.13;;;;;;;;;;5065212;28;20448;-65
2022/07/01 04:13:40;;;;;;;18.90;9.63;;;;;;;;;;5065506;28;20105;-63
2022/07/01 04:16:06;;;;;;;18.00;10.23;;;;;;;;;;5065235;28;20056;-63
2022/07/01 04:18:33;;;;;;;18.70;10.30;;;;;;;;;;5065031;28;20052;-63
2022/07/01 04:23:45;;;;;;;22.75;12.30;;;;;;;;;;5064759;28;20170;-63
2022/07/01 04:26:11;;;;;;;20.15;11.25;;;;;;;;;;5065579;28;20044;-63
2022/07/01 04:28:37;;;;;;;21.60;11.93;;;;;;;;;;5065471;28;20051;-63
2022/07/01 04:31:04;;;;;;;24.48;13.38;;;;;;;;;;5065031;28;20044;-63
2022/07/01 04:33:30;;;;;;;26.05;13.55;;;;;;;;;;5064860;28;20045;-64
2022/07/01 04:35:56;;;;;;;24.45;13.85;;;;;;;;;;5064523;28;20044;-63
2022/07/01 04:38:22;;;;;;;20.90;12.82;;;;;;;;;;5065156;28;20040;-64
2022/07/01 04:43:44;;;;;;;26.65;14.55;;;;;;;;;;5064981;28;20060;-64
2022/07/01 04:46:10;;;;;;;30.15;15.20;;;;;;;;;;5065787;28;20045;-64
2022/07/01 04:48:36;;;;;;;25.65;14.23;;;;;;;;;;5065284;28;20036;-63
2022/07/01 04:51:03;;;;;;;28.02;15.32;;;;;;;;;;5064377;28;20369;-64
2022/07/01 04:53:29;;;;;;;23.17;14.52;;;;;;;;;;5065225;28;20486;-64
2022/07/01 04:55:55;;;;;;;27.67;14.27;;;;;;;;;;5064572;28;20040;-63
2022/07/01 04:58:21;;;;;;;32.00;15.70;;;;;;;;;;5062728;28;20060;-63
2022/07/01 05:00:48;;;;;;;27.20;14.93;;;;;;;;;;5064931;28;20120;-63
2022/07/01 05:03:15;;;;;;;25.45;14.35;;;;;;;;;;5064746;28;20076;-63
2022/07/01 05:05:41;;;;;;;26.85;15.73;;;;;;;;;;5064728;28;20041;-63
2022/07/01 05:08:07;;;;;;;30.67;15.65;;;;;;;;;;5062949;28;20045;-63
2022/07/01 05:10:33;;;;;;;28.65;15.93;;;;;;;;;;5063313;28;20048;-63
2022/07/01 05:12:59;;;;;;;28.02;15.50;;;;;;;;;;5059497;28;20041;-64
2022/07/01 05:15:25;;;;;;;28.52;14.73;;;;;;;;;;5043826;28;20087;-63
2022/07/01 05:23:21;;;;;;;27.90;15.48;;;;;;;;;;5056362;28;20132;-62
2022/07/01 05:25:47;;;;;;;31.27;16.35;;;;;;;;;;5064763;28;20075;-63
2022/07/01 05:28:13;;;;;;;30.98;17.42;;;;;;;;;;5066633;28;20383;-63
2022/07/01 05:30:40;;;;;;;33.35;16.60;;;;;;;;;;5065724;28;20449;-62
2022/07/01 05:33:06;;;;;;;29.05;16.48;;;;;;;;;;5062533;28;20047;-62
2022/07/01 05:35:33;;;;;;;27.05;15.30;;;;;;;;;;5059555;28;20052;-63
2022/07/01 05:37:59;;;;;;;33.90;16.90;;;;;;;;;;5062064;28;20095;-62
2022/07/01 05:43:46;;;;;;;28.67;16.13;;;;;;;;;;5064348;28;20452;-61
2022/07/01 05:46:13;;;;;;;30.58;16.38;;;;;;;;;;5067845;28;20482;-63
2022/07/01 05:48:39;;;;;;;29.92;16.58;;;;;;;;;;5068843;28;20045;-61
2022/07/01 05:51:05;;;;;;;25.77;15.70;;;;;;;;;;5064032;28;20059;-61
2022/07/01 05:53:31;;;;;;;32.35;16.98;;;;;;;;;;5067859;28;20089;-60
2022/07/01 05:55:57;;;;;;;29.55;16.38;;;;;;;;;;5062538;28;20072;-60
2022/07/01 05:58:23;;;;;;;30.50;16.63;;;;;;;;;;5068045;28;20514;-61
2022/07/01 06:00:50;;;;;;;32.17;17.02;;;;;;;;;;5067585;28;20044;-61
2022/07/01 06:03:16;;;;;;;26.17;16.08;;;;;;;;;;5067038;28;20106;-61
2022/07/01 06:05:42;;;;;;;29.10;16.58;;;;;;;;;;5066250;28;20466;-61
2022/07/01 06:08:09;;;;;;;28.98;16.20;;;;;;;;;;5067183;28;20036;-61
2022/07/01 06:10:35;;;;;;;29.35;15.98;;;;;;;;;;5066840;28;20098;-60
2022/07/01 06:13:02;;;;;;;31.05;17.83;;;;;;;;;;5067246;28;20082;-60
2022/07/01 06:15:28;;;;;;;27.98;16.70;;;;;;;;;;5066469;28;20044;-61
2022/07/01 06:17:54;;;;;;;31.23;16.88;;;;;;;;;;5059125;28;20457;-61
2022/07/01 06:20:20;;;;;;;29.52;16.90;;;;;;;;;;5060218;28;20072;-60
2022/07/01 06:22:47;;;;;;;30.48;17.45;;;;;;;;;;5065611;28;20045;-60
2022/07/01 06:25:13;;;;;;;32.00;17.10;;;;;;;;;;5066162;28;20044;-61
2022/07/01 06:27:39;;;;;;;28.95;17.38;;;;;;;;;;5067016;28;20075;-60
2022/07/01 06:30:06;;;;;;;28.17;16.55;;;;;;;;;;5063628;28;20033;-60
2022/07/01 06:32:32;;;;;;;26.70;16.52;;;;;;;;;;5064525;28;20040;-60
2022/07/01 06:34:58;;;;;;;30.42;17.15;;;;;;;;;;5066333;28;20051;-61
2022/07/01 06:37:24;;;;;;;32.00;17.63;;;;;;;;;;5065048;28;20075;-60
2022/07/01 06:39:50;;;;;;;25.80;16.45;;;;;;;;;;5066247;28;20078;-60
2022/07/01 06:42:17;;;;;;;28.15;16.42;;;;;;;;;;5065484;28;20500;-61
2022/07/01 06:44:44;;;;;;;26.63;17.10;;;;;;;;;;5065355;28;20055;-61
2022/07/01 06:47:10;;;;;;;32.05;17.17;;;;;;;;;;5049362;28;20060;-61
2022/07/01 06:49:37;;;;;;;27.55;18.58;;;;;;;;;;5066439;28;20036;-60
2022/07/01 06:52:04;;;;;;;31.08;17.48;;;;;;;;;;5064166;28;20056;-61
2022/07/01 06:54:30;;;;;;;30.63;17.80;;;;;;;;;;5066020;28;20959;-60
2022/07/01 06:56:56;;;;;;;28.10;16.75;;;;;;;;;;5066589;28;20036;-61
2022/07/01 06:59:22;;;;;;;32.47;17.00;;;;;;;;;;5066245;28;20052;-61
2022/07/01 07:01:49;;;;;;;32.03;17.85;;;;;;;;;;5066470;28;20028;-61
2022/07/01 07:04:16;;;;;;;29.05;17.75;;;;;;;;;;5066176;28;20052;-61
2022/07/01 07:06:42;;;;;;;28.98;17.65;;;;;;;;;;5065500;28;20048;-61
2022/07/01 07:09:08;;;;;;;29.90;17.05;;;;;;;;;;5066811;28;20052;-61
2022/07/01 07:11:35;;;;;;;26.13;17.33;;;;;;;;;;5064532;28;20044;-61
2022/07/01 07:14:01;;;;;;;26.30;16.85;;;;;;;;;;5066093;28;20053;-61
2022/07/01 07:16:27;;;;;;;28.23;16.70;;;;;;;;;;5065680;28;20052;-60
2022/07/01 07:18:53;;;;;;;29.77;17.05;;;;;;;;;;5065955;28;20259;-61
2022/07/01 07:21:19;;;;;;;33.38;16.90;;;;;;;;;;5064397;28;20040;-60
2022/07/01 07:23:46;;;;;;;28.80;17.33;;;;;;;;;;5063402;28;20504;-61
2022/07/01 07:26:12;;;;;;;25.27;15.80;;;;;;;;;;5066371;28;20044;-61
2022/07/01 07:28:39;;;;;;;22.95;15.55;;;;;;;;;;5066605;28;20040;-60
2022/07/01 07:31:05;;;;;;;29.95;15.68;;;;;;;;;;5065809;28;20644;-60
2022/07/01 07:33:31;;;;;;;27.67;16.17;;;;;;;;;;5065437;28;20090;-60
2022/07/01 07:35:57;;;;;;;25.00;15.20;;;;;;;;;;5064854;28;20474;-60
2022/07/01 07:38:23;;;;;;;28.55;16.80;;;;;;;;;;5064779;28;20414;-60
2022/07/01 07:40:49;;;;;;;26.15;15.75;;;;;;;;;;5065279;28;20040;-60
2022/07/01 07:43:15;;;;;;;24.77;15.57;;;;;;;;;;5065177;28;20557;-61
2022/07/01 07:45:42;;;;;;;25.52;15.32;;;;;;;;;;5065228;28;20048;-60
2022/07/01 07:48:09;;;;;;;28.58;16.27;;;;;;;;;;5065022;28;20048;-60
2022/07/01 07:50:35;;;;;;;25.73;16.00;;;;;;;;;;5064081;28;20418;-60
2022/07/01 07:53:02;;;;;;;25.30;14.70;;;;;;;;;;5065340;28;20036;-58
2022/07/01 07:55:28;;;;;;;24.48;14.40;;;;;;;;;;5065048;28;20091;-61
2022/07/01 07:57:54;;;;;;;24.77;15.70;;;;;;;;;;5064825;28;20089;-60
2022/07/01 08:00:20;;;;;;;25.67;14.73;;;;;;;;;;5065230;28;20517;-60
2022/07/01 08:02:46;;;;;;;21.38;14.18;;;;;;;;;;5064951;28;20044;-60
2022/07/01 08:05:13;;;;;;;25.35;13.85;;;;;;;;;;5064766;28;20055;-63
2022/07/01 08:07:40;;;;;;;23.67;13.68;;;;;;;;;;5065951;28;20771;-60
2022/07/01 08:10:07;;;;;;;24.27;14.65;;;;;;;;;;5065572;28;20067;-60
2022/07/01 08:12:33;;;;;;;25.42;14.15;;;;;;;;;;5065211;28;20521;-60
2022/07/01 08:14:59;;;;;;;21.73;13.55;;;;;;;;;;5065010;28;20052;-60
2022/07/01 08:17:26;;;;;;;21.20;13.25;;;;;;;;;;5064838;28;20055;-60
2022/07/01 08:19:52;;;;;;;23.55;13.02;;;;;;;;;;5063628;28;20439;-60
2022/07/01 08:22:19;;;;;;;22.08;13.52;;;;;;;;;;5062994;28;20131;-61
2022/07/01 08:24:45;;;;;;;19.35;11.48;;;;;;;;;;5065440;28;20181;-60
2022/07/01 08:27:12;;;;;;;23.70;12.50;;;;;;;;;;5065613;28;20041;-60
2022/07/01 08:29:38;;;;;;;23.25;13.40;;;;;;;;;;5065906;28;20045;-60
2022/07/01 08:32:05;;;;;;;20.33;11.90;;;;;;;;;;5064156;28;20075;-60
2022/07/01 08:34:31;;;;;;;20.00;12.88;;;;;;;;;;5065156;28;20051;-60
2022/07/01 08:36:57;;;;;;;22.83;12.77;;;;;;;;;;5064401;28;20047;-60
2022/07/01 08:39:23;;;;;;;22.90;11.95;;;;;;;;;;5065120;28;20093;-60
2022/07/01 08:41:50;;;;;;;20.05;11.52;;;;;;;;;;5065118;28;20044;-60
2022/07/01 08:44:16;;;;;;;23.90;12.38;;;;;;;;;;5064604;28;20132;-61
2022/07/01 08:46:42;;;;;;;20.55;11.82;;;;;;;;;;5065138;28;20044;-60
2022/07/01 08:49:08;;;;;;;20.42;11.80;;;;;;;;;;5065401;28;20051;-60
2022/07/01 08:51:34;;;;;;;21.63;13.20;;;;;;;;;;5064353;28;20076;-60
2022/07/01 08:54:00;;;;;;;22.88;13.40;;;;;;;;;;5065012;28;20087;-60
2022/07/01 08:56:42;;;;;;;20.42;12.45;;;;;;;;;;5066984;28;20105;-60
2022/07/01 08:59:09;;;;;;;18.80;11.48;;;;;;;;;;5068490;28;20036;-60
2022/07/01 09:01:36;;;;;;;22.20;12.43;;;;;;;;;;5068730;28;20048;-60
2022/07/01 09:04:15;;;;;;;19.40;10.70;;;;;;;;;;5068517;28;20132;-60
2022/07/01 09:06:41;;;;;;;19.25;10.68;;;;;;;;;;5055317;28;20101;-60
2022/07/01 09:09:15;;;;;;;19.13;10.25;;;;;;;;;;5068006;28;20490;-60
2022/07/01 09:11:53;;;;;;;17.73;10.50;;;;;;;;;;5068835;28;20055;-60
2022/07/01 09:14:19;;;;;;;18.30;10.70;;;;;;;;;;5068323;28;20052;-60
2022/07/01 09:16:47;;;;;;;16.23;8.90;;;;;;;;;;5068602;28;20046;-60
2022/07/01 09:19:14;;;;;;;13.85;9.15;;;;;;;;;;5068090;28;20059;-62
2022/07/01 09:21:40;;;;;;;18.58;8.90;;;;;;;;;;5067782;28;20055;-60
2022/07/01 09:24:23;;;;;;;15.73;9.02;;;;;;;;;;5068000;28;20143;-60
2022/07/01 09:26:56;;;;;;;16.48;8.68;;;;;;;;;;5068489;28;20490;-60
2022/07/01 09:29:26;;;;;;;14.02;7.72;;;;;;;;;;5067491;28;20437;-60
2022/07/01 09:31:52;;;;;;;12.52;8.25;;;;;;;;;;5067734;28;20051;-61
2022/07/01 09:34:18;;;;;;;21.85;9.48;;;;;;;;;;5068038;28;20072;-61
2022/07/01 09:36:52;;;;;;;21.10;9.88;;;;;;;;;;5067785;28;20105;-61
2022/07/01 09:39:18;;;;;;;15.43;10.35;;;;;;;;;;5068038;28;20565;-60
2022/07/01 09:41:44;;;;;;;18.35;9.68;;;;;;;;;;5067687;28;20113;-61
2022/07/01 09:44:10;;;;;;;15.13;9.18;;;;;;;;;;5068153;28;20101;-60
2022/07/01 09:46:37;;;;;;;16.15;8.52;;;;;;;;;;5067845;28;20397;-60
2022/07/01 09:49:03;;;;;;;16.83;8.65;;;;;;;;;;5067639;28;20767;-60
2022/07/01 09:51:30;;;;;;;16.17;7.60;;;;;;;;;;5066993;28;20045;-60
2022/07/01 09:53:56;;;;;;;13.07;7.47;;;;;;;;;;5067860;28;20040;-60
2022/07/01 09:56:23;;;;;;;13.48;7.18;;;;;;;;;;5067537;28;20045;-61
2022/07/01 09:58:50;;;;;;;15.25;7.50;;;;;;;;;;5067917;28;20068;-60
2022/07/01 10:01:17;;;;;;;10.63;6.68;;;;;;;;;;5067417;28;20037;-61
2022/07/01 10:03:43;;;;;;;11.90;7.63;;;;;;;;;;5067710;28;20041;-62
2022/07/01 10:06:19;;;;;;;8.73;6.13;;;;;;;;;;5067185;28;20059;-61
2022/07/01 10:08:45;;;;;;;7.22;4.30;;;;;;;;;;5066756;28;20563;-60
2022/07/01 10:11:21;;;;;;;9.90;4.90;;;;;;;;;;5067820;28;20037;-60
2022/07/01 10:13:48;;;;;;;8.27;5.07;;;;;;;;;;5065751;28;20040;-60
2022/07/01 10:16:14;;;;;;;11.88;5.55;;;;;;;;;;5067023;28;20055;-61
2022/07/01 10:18:41;;;;;;;12.80;5.45;;;;;;;;;;5067531;28;20282;-60
2022/07/01 10:21:07;;;;;;;8.60;5.25;;;;;;;;;;5066698;28;20055;-60
2022/07/01 10:23:39;;;;;;;9.43;5.20;;;;;;;;;;5066858;28;20504;-60
2022/07/01 10:26:07;;;;;;;13.15;5.30;;;;;;;;;;5067277;28;20040;-60
2022/07/01 10:28:42;;;;;;;10.43;5.60;;;;;;;;;;5066860;28;20459;-60
2022/07/01 10:31:15;;;;;;;13.25;5.03;;;;;;;;;;5066827;28;20044;-60
2022/07/01 10:33:42;;;;;;;8.18;4.10;;;;;;;;;;5067397;28;20533;-60
2022/07/01 10:36:16;;;;;;;9.77;4.28;;;;;;;;;;5066983;28;20033;-60
2022/07/01 10:39:07;;;;;;;7.70;4.15;;;;;;;;;;5067163;28;20048;-60
2022/07/01 10:41:35;;;;;;;11.80;4.35;;;;;;;;;;5067062;28;20107;-60
2022/07/01 10:44:02;;;;;;;;;;;;;;;;;;5067173;28;20056;-60
2022/07/01 10:46:46;;;;;;;8.73;5.95;;;;;;;;;;5066760;28;19989;-59
2022/07/01 10:49:15;;;;;;;6.38;4.07;;;;;;;;;;5066923;28;20040;-60
2022/07/01 10:51:43;;;;;;;9.85;3.67;;;;;;;;;;5066434;28;20055;-60
2022/07/01 10:54:09;;;;;;;7.65;4.03;;;;;;;;;;5066888;28;20067;-60
2022/07/01 10:56:40;;;;;;;7.45;3.47;;;;;;;;;;5065156;28;20041;-60
2022/07/01 10:59:06;;;;;;;9.95;4.50;;;;;;;;;;5066033;28;20045;-60
2022/07/01 11:01:33;;;;;;;7.45;4.00;;;;;;;;;;5066044;28;20037;-60
2022/07/01 11:03:59;;;;;;;6.85;3.80;;;;;;;;;;5065849;28;20091;-60
2022/07/01 11:06:25;;;;;;;6.88;4.13;;;;;;;;;;5064238;28;20178;-60
2022/07/01 11:08:52;;;;;;;9.80;4.63;;;;;;;;;;5065901;28;20055;-60
2022/07/01 11:11:19;;;;;;;9.35;3.85;;;;;;;;;;5066277;28;20406;-60
2022/07/01 11:13:45;;;;;;;11.18;4.15;;;;;;;;;;5050426;28;20052;-60
2022/07/01 11:16:12;;;;;;;7.03;3.63;;;;;;;;;;5051704;28;20646;-60
2022/07/01 11:18:40;;;;;;;6.85;3.08;;;;;;;;;;5061608;28;20036;-61
2022/07/01 11:21:07;;;;;;;7.13;3.08;;;;;;;;;;5062321;28;20045;-60
2022/07/01 11:23:34;;;;;;;3.72;2.95;;;;;;;;;;5063375;28;20049;-60
2022/07/01 11:26:00;;;;;;;5.78;2.90;;;;;;;;;;5063393;28;20044;-60
2022/07/01 11:28:26;;;;;;;4.95;2.80;;;;;;;;;;5062553;28;20045;-60
2022/07/01 11:30:59;;;;;;;5.78;1.95;;;;;;;;;;5062937;28;20036;-60
2022/07/01 11:33:25;;;;;;;5.85;2.20;;;;;;;;;;5060963;28;20486;-60
2022/07/01 11:41:34;;;;;;;4.20;1.40;;;;;;;;;;5060104;28;20136;-60
2022/07/01 11:44:04;;;;;;;7.22;2.03;;;;;;;;;;5053006;28;20454;-60
2022/07/01 11:46:31;;;;;;;3.20;1.50;;;;;;;;;;5044563;28;20139;-60
2022/07/01 11:48:57;;;;;;;5.35;2.08;;;;;;;;;;5063958;28;20036;-60
2022/07/01 11:51:24;;;;;;;5.47;1.92;;;;;;;;;;5064643;28;20124;-60
2022/07/01 11:53:51;;;;;;;7.53;2.15;;;;;;;;;;5065040;28;20048;-60
2022/07/01 11:56:27;;;;;;;6.10;1.90;;;;;;;;;;5065276;28;20036;-60
2022/07/01 11:58:53;;;;;;;3.38;1.77;;;;;;;;;;5065026;28;20536;-60
2022/07/01 12:01:27;;;;;;;6.68;2.35;;;;;;;;;;5064961;28;20067;-60
2022/07/01 12:03:54;;;;;;;4.75;1.75;;;;;;;;;;5065387;28;20502;-60
2022/07/01 12:06:23;;;;;;;5.20;1.67;;;;;;;;;;5064334;28;20048;-60
2022/07/01 12:08:49;;;;;;;11.80;2.00;;;;;;;;;;5064595;28;20075;-60
2022/07/01 12:11:17;;;;;;;2.70;1.13;;;;;;;;;;5065184;28;20540;-60
2022/07/01 12:13:44;;;;;;;5.15;1.15;;;;;;;;;;5065150;28;20108;-61
2022/07/01 12:16:10;;;;;;;2.17;1.07;;;;;;;;;;5065058;28;20061;-60
2022/07/01 12:18:37;;;;;;;3.65;1.40;;;;;;;;;;5065148;28;20051;-60
2022/07/01 12:21:03;;;;;;;5.90;1.48;;;;;;;;;;5064157;28;20808;-60
2022/07/01 12:23:30;;;;;;;5.93;1.38;;;;;;;;;;5064629;28;20045;-59
2022/07/01 12:25:56;;;;;;;2.65;1.08;;;;;;;;;;5064833;28;20056;-60
2022/07/01 12:28:29;;;;;;;4.35;1.08;;;;;;;;;;5064961;28;20068;-61
2022/07/01 12:31:00;;;;;;;4.32;1.20;;;;;;;;;;5051978;28;20089;-60
2022/07/01 12:33:26;;;;;;;9.57;1.30;;;;;;;;;;5067962;28;20047;-59
2022/07/01 12:35:54;;;;;;;3.50;1.00;;;;;;;;;;5068205;28;20116;-60
2022/07/01 12:38:20;;;;;;;3.40;1.08;;;;;;;;;;5068978;28;20049;-60
2022/07/01 12:40:46;;;;;;;1.52;0.90;;;;;;;;;;5066841;28;20425;-60
2022/07/01 12:43:23;;;;;;;2.88;0.95;;;;;;;;;;5067231;28;20414;-60
2022/07/01 12:45:49;;;;;;;2.47;0.93;;;;;;;;;;5068083;28;20044;-60
2022/07/01 12:48:16;;;;;;;3.67;0.80;;;;;;;;;;5068455;28;20051;-60
2022/07/01 12:50:45;;;;;;;1.77;0.60;;;;;;;;;;5067856;28;20091;-60
2022/07/01 12:53:13;;;;;;;2.85;0.60;;;;;;;;;;5068956;28;20083;-60
2022/07/01 12:55:46;;;;;;;1.88;0.55;;;;;;;;;;5068798;28;20045;-60
2022/07/01 12:58:14;;;;;;;3.65;0.50;;;;;;;;;;5068422;28;20041;-60
2022/07/01 13:00:41;;;;;;;3.63;0.35;;;;;;;;;;5068489;28;20044;-60
2022/07/01 13:03:08;;;;;;;3.35;0.52;;;;;;;;;;5068284;28;20096;-60
2022/07/01 13:05:35;;;;;;;1.85;0.52;;;;;;;;;;5067500;28;20044;-60
2022/07/01 13:08:01;;;;;;;4.05;0.63;;;;;;;;;;5068250;28;20690;-60
2022/07/01 13:10:28;;;;;;;2.75;0.50;;;;;;;;;;5067939;28;20044;-60
2022/07/01 13:12:54;;;;;;;2.70;0.40;;;;;;;;;;5067513;28;20036;-60
2022/07/01 13:15:21;;;;;;;4.40;0.43;;;;;;;;;;5067382;28;20052;-60
2022/07/01 13:17:48;;;;;;;1.17;0.40;;;;;;;;;;5067110;28;20067;-60
2022/07/01 13:20:17;;;;;;;2.35;0.82;;;;;;;;;;5065482;28;20048;-61
2022/07/01 13:22:44;;;;;;;3.33;0.50;;;;;;;;;;5067817;28;20807;-61
2022/07/01 13:25:10;;;;;;;2.33;0.50;;;;;;;;;;5066355;28;20041;-60
2022/07/01 13:27:37;;;;;;;4.30;0.50;;;;;;;;;;5066984;28;20041;-60
2022/07/01 13:30:04;;;;;;;2.85;0.55;;;;;;;;;;5068051;28;20040;-61
2022/07/01 13:32:30;;;;;;;9.80;0.90;;;;;;;;;;5067934;28;20040;-61
2022/07/01 13:34:57;;;;;;;3.70;0.80;;;;;;;;;;5066437;28;20033;-60
2022/07/01 13:37:23;;;;;;;4.00;0.63;;;;;;;;;;5067463;28;20048;-61
2022/07/01 13:39:49;;;;;;;3.72;1.27;;;;;;;;;;5067155;28;20119;-61
2022/07/01 13:42:15;;;;;;;6.85;0.77;;;;;;;;;;5067060;28;20036;-61
2022/07/01 13:44:41;;;;;;;5.78;0.70;;;;;;;;;;5068124;28;20105;-61
2022/07/01 13:47:09;;;;;;;4.30;1.00;;;;;;;;;;5067100;28;20119;-61
2022/07/01 13:49:37;;;;;;;3.88;1.13;;;;;;;;;;5066591;28;20040;-61
2022/07/01 13:52:03;;;;;;;6.07;1.20;;;;;;;;;;5063173;28;20135;-61
2022/07/01 13:54:29;;;;;;;1.77;0.70;;;;;;;;;;5045270;28;20041;-60
2022/07/01 13:56:56;;;;;;;5.28;0.80;;;;;;;;;;5057882;28;20049;-61
2022/07/01 13:59:23;;;;;;;1.25;0.60;;;;;;;;;;5064655;28;20041;-61
2022/07/01 14:01:49;;;;;;;3.72;0.73;;;;;;;;;;5065510;28;20052;-61
2022/07/01 14:04:16;;;;;;;7.10;1.63;;;;;;;;;;5064009;28;20040;-61
2022/07/01 14:06:42;;;;;;;3.83;0.85;;;;;;;;;;5065479;28;20051;-62
2022/07/01 14:09:08;;;;;;;3.90;0.85;;;;;;;;;;5065282;28;20040;-61
2022/07/01 14:11:34;;;;;;;4.63;0.90;;;;;;;;;;5064633;28;20520;-62
2022/07/01 14:14:00;;;;;;;3.67;1.10;;;;;;;;;;5060983;28;20097;-62
2022/07/01 14:16:29;;;;;;;2.78;0.80;;;;;;;;;;5056539;28;20456;-59
2022/07/01 14:18:55;;;;;;;2.92;0.95;;;;;;;;;;5049391;28;20056;-60
2022/07/01 14:21:22;;;;;;;4.90;0.75;;;;;;;;;;5066027;28;20067;-60
2022/07/01 14:23:48;;;;;;;3.85;0.70;;;;;;;;;;5067215;28;20111;-60
2022/07/01 14:26:14;;;;;;;3.08;0.82;;;;;;;;;;5067135;28;20044;-60
2022/07/01 14:28:41;;;;;;;3.45;0.70;;;;;;;;;;5067485;28;20041;-60
2022/07/01 14:31:07;;;;;;;4.97;0.77;;;;;;;;;;5066119;28;20048;-59
2022/07/01 14:33:33;;;;;;;3.20;0.80;;;;;;;;;;5066317;28;20127;-59
2022/07/01 14:36:00;;;;;;;3.30;0.63;;;;;;;;;;5065394;28;20537;-59
2022/07/01 14:38:26;;;;;;;4.13;1.17;;;;;;;;;;5059390;28;20128;-60
2022/07/01 14:40:52;;;;;;;4.05;0.93;;;;;;;;;;5053680;28;20048;-59
2022/07/01 14:43:18;;;;;;;4.63;0.82;;;;;;;;;;5061395;28;20059;-61
2022/07/01 14:45:46;;;;;;;4.13;0.75;;;;;;;;;;5052913;28;20098;-61
2022/07/01 14:48:12;;;;;;;2.55;0.70;;;;;;;;;;5062275;28;20044;-61
2022/07/01 14:50:41;;;;;;;5.15;1.00;;;;;;;;;;5059013;28;20067;-60
2022/07/01 14:53:08;;;;;;;3.40;0.82;;;;;;;;;;5055844;28;20051;-60
2022/07/01 14:55:35;;;;;;;8.38;1.40;;;;;;;;;;5061757;28;20053;-62
2022/07/01 14:58:01;;;;;;;3.40;1.20;;;;;;;;;;5062185;28;20087;-60